CheckWX is a tool to help pilots better visualize weather data.  It is not intended as a substitute for an official pre-flight weather briefing.

15:12:17 UTC

KDAW METAR
Skyhaven Airport
Rochester, New Hampshire, USA
Current

21 mins ago

KDAW 261451Z AUTO 28008KT 210V310 10SM CLR 24/14 A2982 RMK AO2 SLP093 T02390144 58009
Observed
May-26 @ 14:51 UTC
Wind
  • 280° at 8 KTS
Visibility
10 SM
Flight Rules
VFR
Cloud Levels
  • Clear skies
Temperature
24°C / 75°F
Dewpoint
14°C / 57°F
Humidity
54%
Altimeter
29.82" Hg
Pressure
1009.82 hPa
Previous

1 hour ago

KDAW 261351Z AUTO VRB06KT 10SM CLR 21/14 A2983 RMK AO2 SLP097 T02110139
Observed
May-26 @ 13:51 UTC
Wind
  • Variable at 6 KTS
Visibility
10 SM
Flight Rules
VFR
Cloud Levels
  • Clear skies
Temperature
21°C / 70°F
Dewpoint
14°C / 57°F
Humidity
64%
Altimeter
29.83" Hg
Pressure
1010.12 hPa
Previous

2 hours ago

KDAW 261251Z AUTO VRB04KT 10SM CLR 18/12 A2984 RMK AO2 SLP103 T01780122
Observed
May-26 @ 12:51 UTC
Wind
  • Variable at 4 KTS
Visibility
10 SM
Flight Rules
VFR
Cloud Levels
  • Clear skies
Temperature
18°C / 64°F
Dewpoint
12°C / 54°F
Humidity
68%
Altimeter
29.84" Hg
Pressure
1010.52 hPa